createdAt,value
2018-10-12T00:01:48.264Z,1016.3
2018-10-12T00:06:48.730Z,1016.3
2018-10-12T00:11:47.936Z,1016.3
2018-10-12T00:16:48.218Z,1016.4
2018-10-12T00:21:48.645Z,1016.3
2018-10-12T00:26:48.215Z,1016.4
2018-10-12T00:31:48.546Z,1016.3
2018-10-12T00:36:48.015Z,1016.4
2018-10-12T00:41:48.217Z,1016.4
2018-10-12T00:46:48.466Z,1016.5
2018-10-12T00:51:47.941Z,1016.4
2018-10-12T00:56:48.545Z,1016.5
2018-10-12T01:01:47.876Z,1016.5
2018-10-12T01:06:49.136Z,1016.6
2018-10-12T01:11:48.583Z,1016.7
2018-10-12T01:16:47.866Z,1016.7
2018-10-12T01:21:48.335Z,1016.7
2018-10-12T01:26:47.868Z,1016.7
2018-10-12T01:31:48.174Z,1016.7
2018-10-12T01:36:48.642Z,1016.9
2018-10-12T01:41:47.880Z,1016.9
2018-10-12T01:46:48.136Z,1016.9
2018-10-12T01:51:48.615Z,1016.9
2018-10-12T01:56:48.168Z,1016.8
2018-10-12T02:01:48.477Z,1016.8
2018-10-12T02:06:48.009Z,1017
2018-10-12T02:11:48.202Z,1016.9
2018-10-12T02:16:48.468Z,1017
2018-10-12T02:21:47.938Z,1016.9
2018-10-12T02:26:48.516Z,1016.9
2018-10-12T02:31:47.861Z,1017
2018-10-12T02:36:48.309Z,1017.1
2018-10-12T02:41:48.540Z,1017.2
2018-10-12T02:46:47.819Z,1017.3
2018-10-12T02:51:48.266Z,1017.3
2018-10-12T02:56:47.917Z,1017.3
2018-10-12T03:01:48.197Z,1017.3
2018-10-12T03:06:48.684Z,1017.5
2018-10-12T03:11:47.910Z,1017.5
2018-10-12T03:16:48.238Z,1017.7
2018-10-12T03:21:48.723Z,1017.6
2018-10-12T03:26:48.248Z,1017.7
2018-10-12T03:31:48.589Z,1017.8
2018-10-12T03:36:48.056Z,1017.9
2018-10-12T03:41:48.293Z,1018
2018-10-12T03:46:48.583Z,1018
2018-10-12T03:51:48.396Z,1018.1
2018-10-12T03:56:48.619Z,1018.1
2018-10-12T04:01:47.916Z,1018.2
2018-10-12T04:06:48.403Z,1018.3
2018-10-12T04:11:48.599Z,1018.3
2018-10-12T04:16:47.915Z,1018.4
2018-10-12T04:21:48.384Z,1018.4
2018-10-12T04:26:47.970Z,1018.5
2018-10-12T04:31:48.243Z,1018.6
2018-10-12T04:36:48.693Z,1018.7
2018-10-12T04:41:47.915Z,1018.6
2018-10-12T04:46:48.200Z,1018.7
2018-10-12T04:51:48.655Z,1018.6
2018-10-12T04:56:48.310Z,1018.5
2018-10-12T05:01:48.585Z,1018.8
2018-10-12T05:06:48.068Z,1019
2018-10-12T05:11:47.847Z,1019.1
2018-10-12T05:16:48.098Z,1019.1
2018-10-12T05:21:48.540Z,1019.2
2018-10-12T05:26:48.353Z,1019.2
2018-10-12T05:31:48.444Z,1019.3
2018-10-12T05:36:47.935Z,1019.4
2018-10-12T05:41:48.091Z,1019.6
2018-10-12T05:46:48.380Z,1019.7
2018-10-12T05:51:47.841Z,1019.8
2018-10-12T05:56:48.376Z,1020
2018-10-12T06:01:48.683Z,1020
2018-10-12T06:06:48.171Z,1020.1
2018-10-12T06:11:48.406Z,1020.1
2018-10-12T06:16:48.706Z,1020.2
2018-10-12T06:21:48.312Z,1020.2
2018-10-12T06:26:49.468Z,1020.3
2018-10-12T06:31:48.071Z,1020.4
2018-10-12T06:36:48.507Z,1020.4
2018-10-12T06:41:49.970Z,1020.5
2018-10-12T06:46:49.291Z,1020.5
2018-10-12T06:51:48.478Z,1020.5
2018-10-12T06:56:48.115Z,1020.6
2018-10-12T07:01:48.394Z,1020.6
2018-10-12T07:06:48.461Z,1020.7
2018-10-12T07:11:48.069Z,1020.8
2018-10-12T07:16:48.421Z,1020.8
2018-10-12T07:21:47.827Z,1020.9
2018-10-12T07:26:48.392Z,1020.9
2018-10-12T07:31:48.705Z,1021
2018-10-12T07:36:48.349Z,1021.1
2018-10-12T07:41:48.406Z,1021.2
2018-10-12T07:46:48.713Z,1021.2
2018-10-12T07:51:48.145Z,1021.2
2018-10-12T07:56:47.707Z,1021.3
2018-10-12T08:01:48.009Z,1021.4
2018-10-12T08:06:49.029Z,1021.4
2018-10-12T08:11:47.750Z,1021.3
2018-10-12T08:16:48.173Z,1021.3
2018-10-12T08:21:48.505Z,1021.3
2018-10-12T08:26:48.232Z,1021.4
2018-10-12T08:31:48.394Z,1021.4
2018-10-12T08:36:47.898Z,1021.5
2018-10-12T08:41:48.611Z,1021.5
2018-10-12T08:46:48.347Z,1021.7
2018-10-12T08:51:47.878Z,1021.6
2018-10-12T08:56:48.493Z,1021.7
2018-10-12T09:01:47.813Z,1021.8
2018-10-12T09:06:48.251Z,1021.9
2018-10-12T09:11:48.468Z,1021.8
2018-10-12T09:16:47.779Z,1021.9
2018-10-12T09:21:48.846Z,1021.8
2018-10-12T09:26:47.851Z,1021.8
2018-10-12T09:31:48.144Z,1021.8
2018-10-12T09:36:48.958Z,1021.9
2018-10-12T09:41:47.864Z,1021.9
2018-10-12T09:46:48.106Z,1021.8
2018-10-12T09:51:48.600Z,1021.7
2018-10-12T09:56:48.131Z,1021.8
2018-10-12T10:01:49.089Z,1021.7
2018-10-12T10:06:47.912Z,1021.7
2018-10-12T10:11:48.139Z,1021.7
2018-10-12T10:16:48.489Z,1021.6
2018-10-12T10:21:47.996Z,1021.6
2018-10-12T10:26:49.267Z,1021.7
2018-10-12T10:31:47.792Z,1021.7
2018-10-12T10:36:48.938Z,1021.6
2018-10-12T10:41:48.490Z,1021.5
2018-10-12T10:46:47.789Z,1021.5
2018-10-12T10:51:48.261Z,1021.4
2018-10-12T10:56:47.837Z,1021.3
2018-10-12T11:01:48.246Z,1021.2
2018-10-12T11:06:48.640Z,1021.2
2018-10-12T11:11:47.811Z,1021.2
2018-10-12T11:16:48.134Z,1021.2
2018-10-12T11:21:48.580Z,1021.1
2018-10-12T11:26:48.785Z,1021.2
2018-10-12T11:31:48.514Z,1021.2
2018-10-12T11:36:47.980Z,1021.1
2018-10-12T11:41:48.291Z,1021
2018-10-12T11:46:48.488Z,1021
2018-10-12T11:51:48.614Z,1021
2018-10-12T11:56:48.576Z,1021
2018-10-12T12:01:47.877Z,1020.9
2018-10-12T12:06:48.345Z,1020.9
2018-10-12T12:11:48.648Z,1021
2018-10-12T12:16:47.930Z,1020.9
2018-10-12T12:21:48.361Z,1020.9
2018-10-12T12:26:47.900Z,1020.7
2018-10-12T12:31:48.225Z,1020.8
2018-10-12T12:36:48.665Z,1020.8
2018-10-12T12:41:48.462Z,1020.8
2018-10-12T12:46:48.149Z,1020.8
2018-10-12T12:51:48.658Z,1020.8
2018-10-12T12:56:48.307Z,1020.7
2018-10-12T13:01:48.530Z,1020.7
2018-10-12T13:06:48.003Z,1020.8
2018-10-12T13:11:48.268Z,1020.7
2018-10-12T13:16:48.521Z,1020.7
2018-10-12T13:21:47.961Z,1020.7
2018-10-12T13:26:48.545Z,1020.8
2018-10-12T13:31:47.940Z,1020.8
2018-10-12T13:36:48.304Z,1020.7
2018-10-12T13:41:48.487Z,1020.8
2018-10-12T13:46:47.964Z,1020.8
2018-10-12T13:51:48.237Z,1020.7
2018-10-12T13:56:47.820Z,1020.8
2018-10-12T14:01:48.093Z,1020.8
2018-10-12T14:06:48.618Z,1020.8
2018-10-12T14:11:47.865Z,1020.8
2018-10-12T14:16:48.151Z,1020.8
2018-10-12T14:21:48.576Z,1020.8
2018-10-12T14:26:48.666Z,1020.9
2018-10-12T14:31:48.463Z,1020.9
2018-10-12T14:36:47.924Z,1020.9
2018-10-12T14:41:48.144Z,1020.8
2018-10-12T14:46:48.451Z,1020.9
2018-10-12T14:51:48.635Z,1020.9
2018-10-12T14:56:48.489Z,1020.9
2018-10-12T15:01:47.803Z,1020.9
2018-10-12T15:06:48.260Z,1020.8
2018-10-12T15:11:49.423Z,1020.8
2018-10-12T15:16:47.765Z,1020.8
2018-10-12T15:21:48.678Z,1020.8
2018-10-12T15:26:47.814Z,1020.9
2018-10-12T15:31:48.142Z,1021
2018-10-12T15:36:48.656Z,1020.8
2018-10-12T15:41:48.018Z,1020.9
2018-10-12T15:46:48.234Z,1020.9
2018-10-12T15:51:48.535Z,1020.9
2018-10-12T15:56:48.259Z,1020.9
2018-10-12T16:01:48.472Z,1021
2018-10-12T16:06:47.927Z,1021
2018-10-12T16:11:48.168Z,1021
2018-10-12T16:16:48.411Z,1020.9
2018-10-12T16:21:47.911Z,1021
2018-10-12T16:26:48.463Z,1021
2018-10-12T16:31:47.773Z,1021
2018-10-12T16:36:49.058Z,1021.1
2018-10-12T16:41:48.452Z,1021.1
2018-10-12T16:46:47.793Z,1021.1
2018-10-12T16:51:48.213Z,1021.2
2018-10-12T16:56:47.894Z,1021.3
2018-10-12T17:01:48.116Z,1021.3
2018-10-12T17:06:48.591Z,1021.2
2018-10-12T17:11:47.787Z,1021.3
2018-10-12T17:16:48.089Z,1021.4
2018-10-12T17:21:48.574Z,1021.4
2018-10-12T17:26:48.169Z,1021.5
2018-10-12T17:31:48.520Z,1021.5
2018-10-12T17:36:47.933Z,1021.6
2018-10-12T17:41:48.145Z,1021.7
2018-10-12T17:46:48.419Z,1021.7
2018-10-12T17:51:47.899Z,1021.7
2018-10-12T17:56:48.464Z,1021.7
2018-10-12T18:01:47.746Z,1021.7
2018-10-12T18:06:48.253Z,1021.7
2018-10-12T18:11:48.496Z,1021.7
2018-10-12T18:16:47.777Z,1021.8
2018-10-12T18:21:48.273Z,1021.8
2018-10-12T18:26:47.883Z,1021.8
2018-10-12T18:31:48.127Z,1021.8
2018-10-12T18:36:49.079Z,1021.7
2018-10-12T18:41:47.810Z,1021.7
2018-10-12T18:46:48.187Z,1021.8
2018-10-12T18:51:48.594Z,1022
2018-10-12T18:56:48.212Z,1021.9
2018-10-12T19:01:48.582Z,1022
2018-10-12T19:06:48.940Z,1021.9
2018-10-12T19:11:48.195Z,1022
2018-10-12T19:16:48.476Z,1022
2018-10-12T19:21:47.941Z,1022.1
2018-10-12T19:26:48.533Z,1022.2
2018-10-12T19:31:48.591Z,1022.2
2018-10-12T19:36:48.287Z,1022.2
2018-10-12T19:41:48.472Z,1022.2
2018-10-12T19:46:47.816Z,1022.3
2018-10-12T19:51:48.251Z,1022.3
2018-10-12T19:56:47.841Z,1022.3
2018-10-12T20:01:49.055Z,1022.3
2018-10-12T20:06:48.611Z,1022.4
2018-10-12T20:11:47.850Z,1022.4
2018-10-12T20:16:48.120Z,1022.4
2018-10-12T20:21:48.587Z,1022.5
2018-10-12T20:26:48.195Z,1022.5
2018-10-12T20:31:48.465Z,1022.5
2018-10-12T20:36:47.986Z,1022.5
2018-10-12T20:41:48.805Z,1022.6
2018-10-12T20:46:48.506Z,1022.5
2018-10-12T20:51:47.932Z,1022.6
2018-10-12T20:56:48.533Z,1022.6
2018-10-12T21:01:47.862Z,1022.6
2018-10-12T21:06:48.292Z,1022.6
2018-10-12T21:11:48.588Z,1022.6
2018-10-12T21:16:47.828Z,1022.6
2018-10-12T21:21:48.291Z,1022.5
2018-10-12T21:26:47.875Z,1022.6
2018-10-12T21:31:48.171Z,1022.6
2018-10-12T21:36:53.597Z,1022.6
2018-10-12T21:41:47.803Z,1022.6
2018-10-12T21:46:48.871Z,1022.6
2018-10-12T21:51:48.585Z,1022.6
2018-10-12T21:56:48.203Z,1022.6
2018-10-12T22:01:48.445Z,1022.6
2018-10-12T22:06:47.942Z,1022.6
2018-10-12T22:11:48.175Z,1022.6
2018-10-12T22:16:48.580Z,1022.6
2018-10-12T22:21:47.977Z,1022.6
2018-10-12T22:26:48.521Z,1022.6
2018-10-12T22:31:47.855Z,1022.5
2018-10-12T22:36:48.281Z,1022.4
2018-10-12T22:41:48.479Z,1022.4
2018-10-12T22:46:47.775Z,1022.4
2018-10-12T22:51:48.265Z,1022.3
2018-10-12T22:56:47.925Z,1022.3
2018-10-12T23:01:48.120Z,1022.3
2018-10-12T23:06:48.674Z,1022.3
2018-10-12T23:11:47.894Z,1022.3
2018-10-12T23:16:48.209Z,1022.3
2018-10-12T23:21:48.654Z,1022.2
2018-10-12T23:26:48.256Z,1022.3
2018-10-12T23:31:48.554Z,1022.2
2018-10-12T23:36:48.041Z,1022.2
2018-10-12T23:41:48.233Z,1022.2
2018-10-12T23:46:48.505Z,1022.2
2018-10-12T23:51:47.992Z,1022.1
2018-10-12T23:56:48.574Z,1022.1
